Time;durP1;ratioP1;P1;durP2;ratioP2;P2;SDS_P1;SDS_P2;PMS_P1;PMS_P2;Temp;Humidity;BMP_temperature;BMP_pressure;BME280_temperature;BME280_humidity;BME280_pressure;Samples;Min_cycle;Max_cycle;Signal;HPM_P1;HPM_P2
2024/01/21 00:02:21;;;;;;;11.77;11.18;;;;;;;;;;5063215;28;20025;-61
2024/01/21 00:04:47;;;;;;;12.23;11.63;;;;;;;;;;5069251;28;20510;-63
2024/01/21 00:07:12;;;;;;;11.98;11.35;;;;;;;;;;5071306;28;20088;-61
2024/01/21 00:09:37;;;;;;;10.90;10.40;;;;;;;;;;5071571;28;20017;-61
2024/01/21 00:12:03;;;;;;;11.70;11.10;;;;;;;;;;5064610;28;20070;-62
2024/01/21 00:14:28;;;;;;;11.50;10.90;;;;;;;;;;5066351;28;20029;-60
2024/01/21 00:16:54;;;;;;;11.60;11.00;;;;;;;;;;5064282;28;20052;-61
2024/01/21 00:19:19;;;;;;;10.95;10.45;;;;;;;;;;5069000;28;20092;-61
2024/01/21 00:21:44;;;;;;;11.57;10.98;;;;;;;;;;5073506;28;20035;-61
2024/01/21 00:24:10;;;;;;;11.27;10.77;;;;;;;;;;5069417;28;20013;-62
2024/01/21 00:26:35;;;;;;;11.30;10.80;;;;;;;;;;5063497;28;20032;-61
2024/01/21 00:29:00;;;;;;;11.52;10.93;;;;;;;;;;5069318;28;20087;-61
2024/01/21 00:31:29;;;;;;;11.52;10.93;;;;;;;;;;5072398;28;20033;-60
2024/01/21 00:33:54;;;;;;;11.68;11.07;;;;;;;;;;5061522;28;20501;-61
2024/01/21 00:36:19;;;;;;;11.73;11.13;;;;;;;;;;5070662;28;20647;-60
2024/01/21 00:38:45;;;;;;;11.80;11.20;;;;;;;;;;5066215;28;20035;-60
2024/01/21 00:41:14;;;;;;;12.10;11.50;;;;;;;;;;5066512;28;20588;-60
2024/01/21 00:43:39;;;;;;;12.30;11.70;;;;;;;;;;5070175;28;20017;-60
2024/01/21 00:46:05;;;;;;;12.35;11.75;;;;;;;;;;5071858;28;20029;-60
2024/01/21 00:48:31;;;;;;;12.38;11.75;;;;;;;;;;5066586;28;20060;-60
2024/01/21 00:50:56;;;;;;;12.77;12.07;;;;;;;;;;5071394;28;20043;-60
2024/01/21 00:53:22;;;;;;;12.18;11.57;;;;;;;;;;5068314;28;20028;-60
2024/01/21 00:55:47;;;;;;;12.07;11.48;;;;;;;;;;5071087;28;20037;-61
2024/01/21 00:58:12;;;;;;;14.18;13.38;;;;;;;;;;5067894;28;20282;-61
2024/01/21 01:00:38;;;;;;;13.15;12.45;;;;;;;;;;5063879;28;20020;-61
2024/01/21 01:03:04;;;;;;;12.48;11.88;;;;;;;;;;5064428;28;20639;-61
2024/01/21 01:05:29;;;;;;;12.30;11.70;;;;;;;;;;5068299;28;20045;-61
2024/01/21 01:07:55;;;;;;;13.30;12.60;;;;;;;;;;5057876;28;20085;-61
2024/01/21 01:10:20;;;;;;;12.38;11.77;;;;;;;;;;5072083;28;20033;-61
2024/01/21 01:12:45;;;;;;;12.70;12.10;;;;;;;;;;5059853;28;20025;-61
2024/01/21 01:15:11;;;;;;;12.52;11.93;;;;;;;;;;5060053;28;20025;-60
2024/01/21 01:17:36;;;;;;;12.65;12.05;;;;;;;;;;5060999;28;20024;-61
2024/01/21 01:20:02;;;;;;;12.65;12.05;;;;;;;;;;5066440;28;20459;-60
2024/01/21 01:22:27;;;;;;;13.13;12.43;;;;;;;;;;5070803;28;20047;-61
2024/01/21 01:24:53;;;;;;;12.88;12.27;;;;;;;;;;5052437;28;20108;-60
2024/01/21 01:27:18;;;;;;;12.45;11.85;;;;;;;;;;5058993;28;20164;-61
2024/01/21 01:29:43;;;;;;;12.68;11.98;;;;;;;;;;5064872;28;20103;-61
2024/01/21 01:32:10;;;;;;;13.07;12.48;;;;;;;;;;5042903;28;20082;-61
2024/01/21 01:34:35;;;;;;;12.18;11.57;;;;;;;;;;5068090;28;20017;-61
2024/01/21 01:37:00;;;;;;;12.68;11.98;;;;;;;;;;5068028;28;20031;-60
2024/01/21 01:39:26;;;;;;;11.32;10.80;;;;;;;;;;5062652;28;20036;-61
2024/01/21 01:41:51;;;;;;;12.43;11.82;;;;;;;;;;5059378;28;20056;-60
2024/01/21 01:44:16;;;;;;;11.55;11.05;;;;;;;;;;5062336;28;20017;-60
2024/01/21 01:46:42;;;;;;;11.88;11.27;;;;;;;;;;5067080;28;20039;-61
2024/01/21 01:49:07;;;;;;;12.93;12.27;;;;;;;;;;5062799;28;20038;-61
2024/01/21 01:51:34;;;;;;;12.18;11.57;;;;;;;;;;5065227;28;20028;-63
2024/01/21 01:54:00;;;;;;;12.30;11.70;;;;;;;;;;5072504;28;20066;-60
2024/01/21 01:56:26;;;;;;;11.93;11.32;;;;;;;;;;5059906;28;20511;-62
2024/01/21 01:58:53;;;;;;;11.70;11.10;;;;;;;;;;5063762;28;20099;-60
2024/01/21 02:01:18;;;;;;;12.68;11.98;;;;;;;;;;5065806;28;20440;-61
2024/01/21 02:03:45;;;;;;;12.13;11.52;;;;;;;;;;5070594;28;20021;-60
2024/01/21 02:06:10;;;;;;;11.60;11.00;;;;;;;;;;5065432;28;20498;-61
2024/01/21 02:08:36;;;;;;;11.88;11.27;;;;;;;;;;5063321;28;20035;-63
2024/01/21 02:11:01;;;;;;;12.23;11.63;;;;;;;;;;5064637;28;20397;-58
2024/01/21 02:13:28;;;;;;;12.23;11.63;;;;;;;;;;5078235;28;20379;-60
2024/01/21 02:15:53;;;;;;;12.07;11.48;;;;;;;;;;5073327;28;20103;-60
2024/01/21 02:18:18;;;;;;;11.40;10.90;;;;;;;;;;5052474;28;20088;-59
2024/01/21 02:20:44;;;;;;;11.98;11.38;;;;;;;;;;5064825;28;20358;-61
2024/01/21 02:23:10;;;;;;;11.88;11.27;;;;;;;;;;5068286;28;20044;-60
2024/01/21 02:25:36;;;;;;;11.95;11.35;;;;;;;;;;5066473;28;20503;-60
2024/01/21 02:28:01;;;;;;;12.05;11.45;;;;;;;;;;5066214;28;20075;-61
2024/01/21 02:30:27;;;;;;;11.85;11.25;;;;;;;;;;5064408;28;20031;-60
2024/01/21 02:32:52;;;;;;;12.40;11.70;;;;;;;;;;5052575;28;20404;-60
2024/01/21 02:35:17;;;;;;;11.15;10.65;;;;;;;;;;5059105;28;20060;-61
2024/01/21 02:37:43;;;;;;;12.13;11.43;;;;;;;;;;5064760;28;20103;-62
2024/01/21 02:40:08;;;;;;;10.68;10.18;;;;;;;;;;5052183;28;20033;-62
2024/01/21 02:42:34;;;;;;;11.30;10.80;;;;;;;;;;5070229;28;20020;-62
2024/01/21 02:45:00;;;;;;;11.20;10.63;;;;;;;;;;5069223;28;20027;-62
2024/01/21 02:47:25;;;;;;;11.57;10.98;;;;;;;;;;5055825;28;20021;-62
2024/01/21 02:49:50;;;;;;;10.90;10.40;;;;;;;;;;5070611;28;20636;-61
2024/01/21 02:52:16;;;;;;;11.75;11.15;;;;;;;;;;5065411;28;20047;-61
2024/01/21 02:54:41;;;;;;;11.27;10.68;;;;;;;;;;5066970;28;20119;-62
2024/01/21 02:57:06;;;;;;;11.27;10.68;;;;;;;;;;5049115;28;20021;-62
2024/01/21 02:59:32;;;;;;;10.98;10.48;;;;;;;;;;5068245;28;20017;-62
2024/01/21 03:01:57;;;;;;;11.20;10.60;;;;;;;;;;5064940;28;20475;-61
2024/01/21 03:04:23;;;;;;;10.77;10.27;;;;;;;;;;5069468;28;20495;-62
2024/01/21 03:06:49;;;;;;;11.05;10.50;;;;;;;;;;5062680;28;20020;-62
2024/01/21 03:09:14;;;;;;;10.60;10.10;;;;;;;;;;5067545;28;20052;-62
2024/01/21 03:11:39;;;;;;;10.50;10.00;;;;;;;;;;5049118;28;20025;-62
2024/01/21 03:14:06;;;;;;;10.48;9.98;;;;;;;;;;5067590;28;20024;-61
2024/01/21 03:16:31;;;;;;;11.38;10.77;;;;;;;;;;5069451;28;20384;-62
2024/01/21 03:18:56;;;;;;;10.40;9.90;;;;;;;;;;5066742;28;20028;-62
2024/01/21 03:21:22;;;;;;;10.82;10.32;;;;;;;;;;5062380;28;20032;-61
2024/01/21 03:23:47;;;;;;;11.20;10.70;;;;;;;;;;5055631;28;20083;-61
2024/01/21 03:26:13;;;;;;;11.38;10.77;;;;;;;;;;5065606;28;20031;-61
2024/01/21 03:28:38;;;;;;;11.40;10.80;;;;;;;;;;5062979;28;20111;-62
2024/01/21 03:31:03;;;;;;;11.75;11.15;;;;;;;;;;5069150;28;20483;-62
2024/01/21 03:33:29;;;;;;;12.10;11.50;;;;;;;;;;5059382;28;20368;-61
2024/01/21 03:35:55;;;;;;;12.15;11.55;;;;;;;;;;5072113;28;20384;-61
2024/01/21 03:38:20;;;;;;;11.10;10.60;;;;;;;;;;5061296;28;20036;-61
2024/01/21 03:40:46;;;;;;;11.70;11.10;;;;;;;;;;5071055;28;20031;-62
2024/01/21 03:43:11;;;;;;;11.45;10.90;;;;;;;;;;5069290;28;20414;-61
2024/01/21 03:45:37;;;;;;;11.60;11.02;;;;;;;;;;5067018;28;20099;-61
2024/01/21 03:48:03;;;;;;;11.98;11.38;;;;;;;;;;5066012;28;20032;-61
2024/01/21 03:50:28;;;;;;;10.80;10.30;;;;;;;;;;5064374;28;20021;-61
2024/01/21 03:52:53;;;;;;;11.18;10.57;;;;;;;;;;5061022;28;20025;-62
2024/01/21 03:55:20;;;;;;;10.82;10.32;;;;;;;;;;5070138;28;20033;-62
2024/01/21 03:57:45;;;;;;;10.05;9.57;;;;;;;;;;5062787;28;20120;-62
2024/01/21 04:00:11;;;;;;;10.95;10.38;;;;;;;;;;5068372;28;20148;-62
2024/01/21 04:02:36;;;;;;;10.55;10.05;;;;;;;;;;5071660;28;20024;-62
2024/01/21 04:05:02;;;;;;;10.30;9.80;;;;;;;;;;5047981;28;20414;-61
2024/01/21 04:07:28;;;;;;;10.90;10.40;;;;;;;;;;5062919;28;20025;-61
2024/01/21 04:09:54;;;;;;;10.57;10.07;;;;;;;;;;5072055;28;20501;-61
2024/01/21 04:12:19;;;;;;;10.88;10.38;;;;;;;;;;5069978;28;20020;-61
2024/01/21 04:14:44;;;;;;;11.07;10.48;;;;;;;;;;5067731;28;20031;-62
2024/01/21 04:17:11;;;;;;;12.15;11.45;;;;;;;;;;5066356;28;20147;-61
2024/01/21 04:19:36;;;;;;;11.18;10.57;;;;;;;;;;5077844;28;20012;-61
2024/01/21 04:22:01;;;;;;;10.25;9.75;;;;;;;;;;5068379;28;20161;-61
2024/01/21 04:24:27;;;;;;;11.07;10.48;;;;;;;;;;5073268;28;20116;-61
2024/01/21 04:26:52;;;;;;;10.40;9.90;;;;;;;;;;5071435;28;20024;-61
2024/01/21 04:29:17;;;;;;;10.75;10.25;;;;;;;;;;5064545;28;20024;-60
2024/01/21 04:31:45;;;;;;;11.05;10.45;;;;;;;;;;5068031;28;20036;-60
2024/01/21 04:34:11;;;;;;;10.13;9.63;;;;;;;;;;5069516;28;20391;-58
2024/01/21 04:36:36;;;;;;;10.77;10.27;;;;;;;;;;5076518;28;20027;-61
2024/01/21 04:39:02;;;;;;;11.00;10.40;;;;;;;;;;5063531;28;20025;-61
2024/01/21 04:41:27;;;;;;;11.52;10.93;;;;;;;;;;5049798;28;20028;-60
2024/01/21 04:43:52;;;;;;;11.43;10.82;;;;;;;;;;5072325;28;20017;-61
2024/01/21 04:46:18;;;;;;;11.32;10.73;;;;;;;;;;5066908;28;20086;-61
2024/01/21 04:48:43;;;;;;;11.05;10.52;;;;;;;;;;5073096;28;20095;-61
2024/01/21 04:51:08;;;;;;;10.80;10.30;;;;;;;;;;5068943;28;20103;-60
2024/01/21 04:53:34;;;;;;;11.13;10.63;;;;;;;;;;5072053;28;20021;-60
2024/01/21 04:55:59;;;;;;;10.55;10.05;;;;;;;;;;5066692;28;20029;-60
2024/01/21 04:58:24;;;;;;;10.43;9.93;;;;;;;;;;5067387;28;20013;-63
2024/01/21 05:00:50;;;;;;;10.80;10.27;;;;;;;;;;5066447;28;20078;-61
2024/01/21 05:03:15;;;;;;;11.27;10.68;;;;;;;;;;5068088;28;20077;-62
2024/01/21 05:05:40;;;;;;;10.32;9.82;;;;;;;;;;5066713;28;20098;-63
2024/01/21 05:08:06;;;;;;;10.50;10.00;;;;;;;;;;5049618;28;20119;-62
2024/01/21 05:10:31;;;;;;;10.43;9.93;;;;;;;;;;5070913;28;20394;-62
2024/01/21 05:12:56;;;;;;;10.32;9.82;;;;;;;;;;5077390;28;20478;-62
2024/01/21 05:15:22;;;;;;;10.20;9.70;;;;;;;;;;5070291;28;20135;-62
2024/01/21 05:17:47;;;;;;;10.23;9.73;;;;;;;;;;5064914;28;20031;-62
2024/01/21 05:20:13;;;;;;;10.25;9.75;;;;;;;;;;5073861;28;20031;-62
2024/01/21 05:22:38;;;;;;;10.27;9.77;;;;;;;;;;5064853;28;20032;-62
2024/01/21 05:25:03;;;;;;;9.82;9.43;;;;;;;;;;5068155;28;20110;-62
2024/01/21 05:27:29;;;;;;;9.90;9.40;;;;;;;;;;5071570;28;20506;-62
2024/01/21 05:29:55;;;;;;;10.75;10.25;;;;;;;;;;5068161;28;20081;-62
2024/01/21 05:32:20;;;;;;;10.57;10.07;;;;;;;;;;5069099;28;20012;-62
2024/01/21 05:34:45;;;;;;;10.27;9.77;;;;;;;;;;5065071;28;20498;-63
2024/01/21 05:37:11;;;;;;;10.73;10.23;;;;;;;;;;5070086;28;20155;-61
2024/01/21 05:39:36;;;;;;;10.80;10.30;;;;;;;;;;5068474;28;20556;-61
2024/01/21 05:42:02;;;;;;;10.70;10.20;;;;;;;;;;5065265;28;20024;-63
2024/01/21 05:44:27;;;;;;;10.27;9.77;;;;;;;;;;5072414;28;20382;-62
2024/01/21 05:46:52;;;;;;;10.80;10.30;;;;;;;;;;5063934;28;20028;-62
2024/01/21 05:49:18;;;;;;;10.60;10.10;;;;;;;;;;5065231;28;20454;-63
2024/01/21 05:51:43;;;;;;;10.48;9.98;;;;;;;;;;5064027;28;20103;-62
2024/01/21 05:54:08;;;;;;;9.60;9.20;;;;;;;;;;5054429;28;20556;-60
2024/01/21 05:56:34;;;;;;;10.38;9.88;;;;;;;;;;5065588;28;20039;-62
2024/01/21 05:58:59;;;;;;;10.23;9.73;;;;;;;;;;5068531;28;20020;-63
2024/01/21 06:01:24;;;;;;;10.40;9.90;;;;;;;;;;5059745;28;20028;-61
2024/01/21 06:03:50;;;;;;;10.65;10.10;;;;;;;;;;5066225;28;20032;-61
2024/01/21 06:06:15;;;;;;;10.00;9.50;;;;;;;;;;5060341;28;20032;-62
2024/01/21 06:08:40;;;;;;;10.30;9.80;;;;;;;;;;5060155;28;20021;-61
2024/01/21 06:11:06;;;;;;;9.90;9.40;;;;;;;;;;5070411;28;20027;-61
2024/01/21 06:13:31;;;;;;;10.23;9.73;;;;;;;;;;5064906;28;20418;-61
2024/01/21 06:16:00;;;;;;;9.60;9.15;;;;;;;;;;5066330;28;20020;-62
2024/01/21 06:18:25;;;;;;;9.48;8.98;;;;;;;;;;5044915;28;20024;-62
2024/01/21 06:20:50;;;;;;;8.65;8.25;;;;;;;;;;5061771;28;20025;-62
2024/01/21 06:23:16;;;;;;;8.30;7.90;;;;;;;;;;5064027;28;20108;-62
2024/01/21 06:25:41;;;;;;;8.52;8.13;;;;;;;;;;5063065;28;20036;-62
2024/01/21 06:28:07;;;;;;;8.70;8.30;;;;;;;;;;5059805;28;20032;-63
2024/01/21 06:30:32;;;;;;;8.95;8.55;;;;;;;;;;5038027;28;20043;-61
2024/01/21 06:32:57;;;;;;;9.70;9.20;;;;;;;;;;5064422;28;20482;-62
2024/01/21 06:35:23;;;;;;;9.60;9.20;;;;;;;;;;5063287;28;20042;-62
2024/01/21 06:37:48;;;;;;;9.95;9.45;;;;;;;;;;5071223;28;20033;-61
2024/01/21 06:40:13;;;;;;;9.70;9.30;;;;;;;;;;5068995;28;20031;-63
2024/01/21 06:42:39;;;;;;;10.35;9.85;;;;;;;;;;5058931;28;20067;-62
2024/01/21 06:45:04;;;;;;;10.45;9.95;;;;;;;;;;5072240;28;20024;-62
2024/01/21 06:47:30;;;;;;;10.52;10.02;;;;;;;;;;5062528;28;20607;-62
2024/01/21 06:49:55;;;;;;;10.68;10.18;;;;;;;;;;5070153;28;20552;-62
2024/01/21 06:52:20;;;;;;;9.68;9.20;;;;;;;;;;5061220;28;20020;-63
2024/01/21 06:54:46;;;;;;;10.48;9.98;;;;;;;;;;5061631;28;20031;-61
2024/01/21 06:57:11;;;;;;;9.95;9.45;;;;;;;;;;5068244;28;20027;-63
2024/01/21 06:59:36;;;;;;;9.40;9.00;;;;;;;;;;5059573;28;20025;-63
2024/01/21 07:02:02;;;;;;;9.93;9.52;;;;;;;;;;5061712;28;20017;-61
2024/01/21 07:04:27;;;;;;;10.07;9.65;;;;;;;;;;5059944;28;20862;-62
2024/01/21 07:06:53;;;;;;;10.50;10.00;;;;;;;;;;5062828;28;20020;-61
2024/01/21 07:09:18;;;;;;;10.30;9.82;;;;;;;;;;5064995;28;20053;-63
2024/01/21 07:11:44;;;;;;;11.00;10.50;;;;;;;;;;5066487;28;20033;-62
2024/01/21 07:14:09;;;;;;;11.45;10.95;;;;;;;;;;5064345;28;20447;-62
2024/01/21 07:16:34;;;;;;;11.88;11.32;;;;;;;;;;5061657;28;20042;-61
2024/01/21 07:19:00;;;;;;;11.70;11.20;;;;;;;;;;5056797;28;20106;-61
2024/01/21 07:21:25;;;;;;;11.50;11.00;;;;;;;;;;5046044;28;20049;-62
2024/01/21 07:23:50;;;;;;;12.10;11.50;;;;;;;;;;5060695;28;20028;-63
2024/01/21 07:26:16;;;;;;;12.20;11.60;;;;;;;;;;5067109;28;20155;-63
2024/01/21 07:28:41;;;;;;;12.07;11.48;;;;;;;;;;5050466;28;20028;-63
2024/01/21 07:31:07;;;;;;;11.50;11.00;;;;;;;;;;5067487;28;20039;-63
2024/01/21 07:33:33;;;;;;;11.95;11.35;;;;;;;;;;5062525;28;20020;-62
2024/01/21 07:36:02;;;;;;;11.50;10.95;;;;;;;;;;5060461;28;20155;-62
2024/01/21 07:38:27;;;;;;;11.45;10.95;;;;;;;;;;5063383;28;20093;-61
2024/01/21 07:40:52;;;;;;;11.50;10.95;;;;;;;;;;5063910;28;20048;-61
2024/01/21 07:43:18;;;;;;;12.02;11.43;;;;;;;;;;5064896;28;20052;-62
2024/01/21 07:45:43;;;;;;;11.23;10.73;;;;;;;;;;5064794;28;20495;-62
2024/01/21 07:48:08;;;;;;;11.98;11.38;;;;;;;;;;5061317;28;20498;-62
2024/01/21 07:50:34;;;;;;;11.38;10.82;;;;;;;;;;5064524;28;20415;-62
2024/01/21 07:52:59;;;;;;;12.05;11.45;;;;;;;;;;5065236;28;20028;-61
2024/01/21 07:55:24;;;;;;;12.00;11.40;;;;;;;;;;5064702;28;20029;-62
2024/01/21 07:57:49;;;;;;;11.93;11.32;;;;;;;;;;5056506;28;20025;-62
2024/01/21 08:00:15;;;;;;;11.32;10.73;;;;;;;;;;5064372;28;20103;-62
2024/01/21 08:02:41;;;;;;;11.30;10.70;;;;;;;;;;5060904;28;20040;-62
2024/01/21 08:05:06;;;;;;;10.98;10.48;;;;;;;;;;5060642;28;20045;-61
2024/01/21 08:07:31;;;;;;;10.70;10.20;;;;;;;;;;5056629;28;20028;-61
2024/01/21 08:09:58;;;;;;;10.93;10.43;;;;;;;;;;5050720;28;20036;-63
2024/01/21 08:12:23;;;;;;;9.93;9.43;;;;;;;;;;5060644;28;20024;-62
2024/01/21 08:14:48;;;;;;;9.80;9.40;;;;;;;;;;5060314;28;20020;-62
2024/01/21 08:17:14;;;;;;;10.20;9.70;;;;;;;;;;5048640;28;20029;-62
2024/01/21 08:19:39;;;;;;;10.80;10.30;;;;;;;;;;5061478;28;20143;-64
2024/01/21 08:22:05;;;;;;;10.02;9.63;;;;;;;;;;5054315;28;20032;-64
2024/01/21 08:24:30;;;;;;;11.07;10.57;;;;;;;;;;5066456;28;20040;-64
2024/01/21 08:26:57;;;;;;;11.10;10.60;;;;;;;;;;5063797;28;20025;-64
2024/01/21 08:29:22;;;;;;;11.60;11.10;;;;;;;;;;5067477;28;20025;-62
2024/01/21 08:31:47;;;;;;;12.00;11.40;;;;;;;;;;5067958;28;20532;-63
2024/01/21 08:34:13;;;;;;;11.80;11.30;;;;;;;;;;5065018;28;20012;-61
2024/01/21 08:36:38;;;;;;;11.27;10.77;;;;;;;;;;5068327;28;20021;-62
2024/01/21 08:39:09;;;;;;;11.25;10.75;;;;;;;;;;5064456;28;20017;-62
2024/01/21 08:41:34;;;;;;;11.32;10.82;;;;;;;;;;5066542;28;20027;-63
2024/01/21 08:44:00;;;;;;;11.02;10.52;;;;;;;;;;5066006;28;20063;-63
2024/01/21 08:46:26;;;;;;;11.85;11.25;;;;;;;;;;5067635;28;20075;-62
2024/01/21 08:48:51;;;;;;;11.23;10.73;;;;;;;;;;5068305;28;20025;-63
2024/01/21 08:51:16;;;;;;;11.00;10.50;;;;;;;;;;5066414;28;20023;-64
2024/01/21 08:53:41;;;;;;;11.10;10.60;;;;;;;;;;5063253;28;20447;-62
2024/01/21 08:56:07;;;;;;;10.85;10.35;;;;;;;;;;5068286;28;20474;-63
2024/01/21 08:58:32;;;;;;;10.73;10.23;;;;;;;;;;5078281;28;20943;-63
2024/01/21 09:00:57;;;;;;;11.25;10.75;;;;;;;;;;5078195;28;20490;-63
2024/01/21 09:03:23;;;;;;;12.10;11.50;;;;;;;;;;5071772;28;20398;-62
2024/01/21 09:05:48;;;;;;;11.30;10.80;;;;;;;;;;5069221;28;20113;-63
2024/01/21 09:08:13;;;;;;;10.88;10.38;;;;;;;;;;5071522;28;20024;-62
2024/01/21 09:10:39;;;;;;;10.93;10.43;;;;;;;;;;5074450;28;20017;-63
2024/01/21 09:13:05;;;;;;;10.95;10.45;;;;;;;;;;5071338;28;20033;-63
2024/01/21 09:15:30;;;;;;;11.40;10.90;;;;;;;;;;5070465;28;20016;-64
2024/01/21 09:17:56;;;;;;;11.70;11.20;;;;;;;;;;5060959;28;20069;-63
2024/01/21 09:20:21;;;;;;;11.13;10.63;;;;;;;;;;5066999;28;20083;-64
2024/01/21 09:22:47;;;;;;;11.77;11.27;;;;;;;;;;5070700;28;20044;-63
2024/01/21 09:25:12;;;;;;;11.65;11.15;;;;;;;;;;5065290;28;20099;-63
2024/01/21 09:27:37;;;;;;;12.15;11.65;;;;;;;;;;5062391;28;20032;-62
2024/01/21 09:30:03;;;;;;;11.75;11.25;;;;;;;;;;5054812;28;20021;-63
2024/01/21 09:32:29;;;;;;;11.60;11.10;;;;;;;;;;5064085;28;20028;-63
2024/01/21 09:34:54;;;;;;;12.00;11.50;;;;;;;;;;5074530;28;20025;-62
2024/01/21 09:37:20;;;;;;;11.88;11.38;;;;;;;;;;5067780;28;20382;-63
2024/01/21 09:39:45;;;;;;;11.63;11.13;;;;;;;;;;5065607;28;20027;-63
2024/01/21 09:42:10;;;;;;;11.88;11.38;;;;;;;;;;5066320;28;20022;-63
2024/01/21 09:44:36;;;;;;;11.90;11.40;;;;;;;;;;5064369;28;20513;-64
2024/01/21 09:47:02;;;;;;;12.10;11.60;;;;;;;;;;5072735;28;20063;-62
2024/01/21 09:49:27;;;;;;;12.68;12.07;;;;;;;;;;5067932;28;20496;-65
2024/01/21 09:51:53;;;;;;;13.10;12.50;;;;;;;;;;5042364;28;20086;-65
2024/01/21 09:54:19;;;;;;;13.02;12.43;;;;;;;;;;5063203;28;20460;-65
2024/01/21 09:56:45;;;;;;;14.63;13.88;;;;;;;;;;5048505;28;20089;-63
2024/01/21 09:59:10;;;;;;;14.32;13.57;;;;;;;;;;5044921;28;20013;-65
2024/01/21 10:01:36;;;;;;;12.73;12.13;;;;;;;;;;5067276;28;20029;-65
2024/01/21 10:04:01;;;;;;;12.30;11.70;;;;;;;;;;5057710;28;20027;-62
2024/01/21 10:06:27;;;;;;;12.68;12.07;;;;;;;;;;5057347;28;20061;-63
2024/01/21 10:08:52;;;;;;;12.07;11.48;;;;;;;;;;5069225;28;20020;-62
2024/01/21 10:11:17;;;;;;;12.18;11.57;;;;;;;;;;5068626;28;20027;-64
2024/01/21 10:13:44;;;;;;;11.57;11.07;;;;;;;;;;5060631;28;20483;-65
2024/01/21 10:16:12;;;;;;;11.48;10.98;;;;;;;;;;5064677;28;20024;-64
2024/01/21 10:18:38;;;;;;;11.25;10.75;;;;;;;;;;5070580;28;20429;-65
2024/01/21 10:21:05;;;;;;;11.65;11.13;;;;;;;;;;5073055;28;20023;-65
2024/01/21 10:23:30;;;;;;;11.15;10.65;;;;;;;;;;5064471;28;20027;-65
2024/01/21 10:25:56;;;;;;;11.43;10.90;;;;;;;;;;5062127;28;20025;-64
2024/01/21 10:28:22;;;;;;;11.00;10.50;;;;;;;;;;5066457;28;20020;-64
2024/01/21 10:30:48;;;;;;;11.55;10.98;;;;;;;;;;5065232;28;20430;-63
2024/01/21 10:33:13;;;;;;;11.50;11.00;;;;;;;;;;5058930;28;20025;-63
2024/01/21 10:35:39;;;;;;;11.95;11.35;;;;;;;;;;5057731;28;20082;-63
2024/01/21 10:38:09;;;;;;;10.95;10.45;;;;;;;;;;5067406;28;20055;-62
2024/01/21 10:40:34;;;;;;;11.65;11.05;;;;;;;;;;5061344;28;20027;-63
2024/01/21 10:43:00;;;;;;;11.20;10.70;;;;;;;;;;5064805;28;20028;-63
2024/01/21 10:45:26;;;;;;;11.05;10.55;;;;;;;;;;5067686;28;20399;-62
2024/01/21 10:47:51;;;;;;;10.73;10.23;;;;;;;;;;5053444;28;20029;-61
2024/01/21 10:50:19;;;;;;;11.00;10.50;;;;;;;;;;5069718;28;20032;-64
2024/01/21 10:52:45;;;;;;;11.00;10.50;;;;;;;;;;5063091;28;20021;-61
2024/01/21 10:55:11;;;;;;;11.38;10.80;;;;;;;;;;5066138;28;20026;-62
2024/01/21 10:57:36;;;;;;;10.77;10.27;;;;;;;;;;5057293;28;20480;-64
2024/01/21 11:00:03;;;;;;;10.90;10.40;;;;;;;;;;5062818;28;20028;-62
2024/01/21 11:02:30;;;;;;;10.60;10.10;;;;;;;;;;5065325;28;20510;-64
2024/01/21 11:04:56;;;;;;;11.27;10.77;;;;;;;;;;5075236;28;20626;-64
2024/01/21 11:07:24;;;;;;;10.93;10.43;;;;;;;;;;5067991;28;20106;-63
2024/01/21 11:09:50;;;;;;;11.35;10.77;;;;;;;;;;5066366;28;20414;-62
2024/01/21 11:12:15;;;;;;;11.20;10.70;;;;;;;;;;5062878;28;20021;-61
2024/01/21 11:14:42;;;;;;;11.20;10.70;;;;;;;;;;5067592;28;20035;-62
2024/01/21 11:17:10;;;;;;;11.10;10.60;;;;;;;;;;5058674;28;20025;-62
2024/01/21 11:19:43;;;;;;;11.05;10.55;;;;;;;;;;5067116;28;20021;-62
2024/01/21 11:22:12;;;;;;;11.25;10.75;;;;;;;;;;5064573;28;20033;-64
2024/01/21 11:24:37;;;;;;;11.07;10.57;;;;;;;;;;5073512;28;20020;-61
2024/01/21 11:27:03;;;;;;;11.18;10.68;;;;;;;;;;5067126;28;20520;-62
2024/01/21 11:29:29;;;;;;;10.80;10.30;;;;;;;;;;5067632;28;20043;-63
2024/01/21 11:31:56;;;;;;;11.07;10.57;;;;;;;;;;5064857;28;20147;-61
2024/01/21 11:34:24;;;;;;;11.15;10.65;;;;;;;;;;5064656;28;20047;-61
2024/01/21 11:36:50;;;;;;;11.80;11.20;;;;;;;;;;5060441;28;20040;-61
2024/01/21 11:39:17;;;;;;;12.52;11.82;;;;;;;;;;5056608;28;20128;-60
2024/01/21 11:41:43;;;;;;;12.27;11.68;;;;;;;;;;5059737;28;20017;-61
2024/01/21 11:44:10;;;;;;;12.63;11.93;;;;;;;;;;5059721;28;20063;-61
2024/01/21 11:46:36;;;;;;;11.80;11.20;;;;;;;;;;5057513;28;20666;-61
2024/01/21 11:49:02;;;;;;;11.32;10.77;;;;;;;;;;5059194;28;20013;-60
2024/01/21 11:51:27;;;;;;;11.23;10.70;;;;;;;;;;5061609;28;20021;-60
2024/01/21 11:53:53;;;;;;;11.98;11.38;;;;;;;;;;5067737;28;20483;-60
2024/01/21 11:56:18;;;;;;;11.68;11.07;;;;;;;;;;5065297;28;20475;-61
2024/01/21 11:58:44;;;;;;;11.10;10.60;;;;;;;;;;5060294;28;20419;-59
2024/01/21 12:01:09;;;;;;;11.15;10.65;;;;;;;;;;5059716;28;20013;-61
2024/01/21 12:03:34;;;;;;;11.10;10.60;;;;;;;;;;5067660;28;20016;-61
2024/01/21 12:06:00;;;;;;;11.07;10.57;;;;;;;;;;5071021;28;20052;-59
2024/01/21 12:08:25;;;;;;;11.90;11.30;;;;;;;;;;5072612;28;20039;-60
2024/01/21 12:10:51;;;;;;;11.02;10.52;;;;;;;;;;5070570;28;20024;-60
2024/01/21 12:13:16;;;;;;;11.32;10.73;;;;;;;;;;5066427;28;20024;-61
2024/01/21 12:15:42;;;;;;;11.43;10.82;;;;;;;;;;5060938;28;20040;-60
2024/01/21 12:18:07;;;;;;;11.23;10.73;;;;;;;;;;5072611;28;20029;-60
2024/01/21 12:20:33;;;;;;;11.10;10.60;;;;;;;;;;5069567;28;20032;-62
2024/01/21 12:22:58;;;;;;;10.95;10.45;;;;;;;;;;5080824;28;20051;-61
2024/01/21 12:25:24;;;;;;;11.38;10.80;;;;;;;;;;5062509;28;20019;-62
2024/01/21 12:27:54;;;;;;;11.50;10.90;;;;;;;;;;5075090;28;20013;-62
2024/01/21 12:30:20;;;;;;;10.88;10.38;;;;;;;;;;5068578;28;20517;-62
2024/01/21 12:32:45;;;;;;;10.85;10.35;;;;;;;;;;5071047;28;20028;-62
2024/01/21 12:35:10;;;;;;;9.93;9.52;;;;;;;;;;5078294;28;20024;-61
2024/01/21 12:37:36;;;;;;;10.73;10.23;;;;;;;;;;5066948;28;20028;-61
2024/01/21 12:40:01;;;;;;;11.43;10.82;;;;;;;;;;5066448;28;20472;-60
2024/01/21 12:42:27;;;;;;;11.30;10.70;;;;;;;;;;5054399;28;20059;-61
2024/01/21 12:44:52;;;;;;;11.20;10.65;;;;;;;;;;5064782;28;20111;-60
2024/01/21 12:47:18;;;;;;;11.35;10.75;;;;;;;;;;5070234;28;20028;-62
2024/01/21 12:49:44;;;;;;;11.65;11.05;;;;;;;;;;5053696;28;20763;-61
2024/01/21 12:52:09;;;;;;;11.35;10.75;;;;;;;;;;5065104;28;20032;-61
2024/01/21 12:54:35;;;;;;;10.18;9.73;;;;;;;;;;5058178;28;20021;-62
2024/01/21 12:57:02;;;;;;;11.05;10.55;;;;;;;;;;5067820;28;20021;-60
2024/01/21 12:59:28;;;;;;;12.45;11.75;;;;;;;;;;5064488;28;20021;-62
2024/01/21 13:01:53;;;;;;;10.85;10.35;;;;;;;;;;5062689;28;20496;-60
2024/01/21 13:04:19;;;;;;;10.52;10.02;;;;;;;;;;5068738;28;20467;-62
2024/01/21 13:06:45;;;;;;;10.60;10.10;;;;;;;;;;5074875;28;20504;-61
2024/01/21 13:09:11;;;;;;;10.90;10.40;;;;;;;;;;5063419;28;20095;-61
2024/01/21 13:11:36;;;;;;;11.00;10.50;;;;;;;;;;5077410;28;20050;-61
2024/01/21 13:14:01;;;;;;;10.52;10.02;;;;;;;;;;5066560;28;20336;-61
2024/01/21 13:16:27;;;;;;;10.80;10.30;;;;;;;;;;5074504;28;20391;-60
2024/01/21 13:18:52;;;;;;;11.25;10.73;;;;;;;;;;5068518;28;20025;-61
2024/01/21 13:21:18;;;;;;;11.18;10.63;;;;;;;;;;5065418;28;20021;-61
2024/01/21 13:23:43;;;;;;;11.27;10.68;;;;;;;;;;5050187;28;20020;-61
2024/01/21 13:26:11;;;;;;;10.82;10.32;;;;;;;;;;5065861;28;20021;-61
2024/01/21 13:28:49;;;;;;;11.75;11.15;;;;;;;;;;5061878;28;20380;-60
2024/01/21 13:31:14;;;;;;;10.32;9.82;;;;;;;;;;5055465;28;20020;-61
2024/01/21 13:33:40;;;;;;;11.20;10.65;;;;;;;;;;5048919;28;20119;-60
2024/01/21 13:36:05;;;;;;;11.05;10.55;;;;;;;;;;5065938;28;20111;-63
2024/01/21 13:38:33;;;;;;;10.52;10.02;;;;;;;;;;5067657;28;20120;-62
2024/01/21 13:41:02;;;;;;;10.80;10.30;;;;;;;;;;5067616;28;20021;-62
2024/01/21 13:43:28;;;;;;;10.23;9.73;;;;;;;;;;5070298;28;20022;-62
2024/01/21 13:45:53;;;;;;;11.57;10.98;;;;;;;;;;5067763;28;20040;-62
2024/01/21 13:48:19;;;;;;;12.18;11.50;;;;;;;;;;5069724;28;20024;-61
2024/01/21 13:50:44;;;;;;;11.20;10.63;;;;;;;;;;5065771;28;20024;-62
2024/01/21 13:53:10;;;;;;;10.50;10.00;;;;;;;;;;5071928;28;20055;-62
2024/01/21 13:55:37;;;;;;;11.02;10.48;;;;;;;;;;5069450;28;20055;-63
2024/01/21 13:58:04;;;;;;;12.27;11.57;;;;;;;;;;5061671;28;20032;-61
2024/01/21 14:00:30;;;;;;;11.18;10.57;;;;;;;;;;5071106;28;20021;-62
2024/01/21 14:02:56;;;;;;;11.30;10.70;;;;;;;;;;5070096;28;20103;-62
2024/01/21 14:05:22;;;;;;;11.93;11.32;;;;;;;;;;5071100;28;20132;-63
2024/01/21 14:07:48;;;;;;;11.93;11.30;;;;;;;;;;5067957;28;20047;-63
2024/01/21 14:10:14;;;;;;;11.32;10.73;;;;;;;;;;5070576;28;20149;-62
2024/01/21 14:12:40;;;;;;;11.20;10.70;;;;;;;;;;5068816;28;20021;-62